松山空港の過去48時間の天気

松山空港 (Matsuyama)

現在時刻: 1/20 00:41 JST (1/19 15:41 UTC) 以下の時間は現地時間です。

過去48時間のMETAR気象情報
時間 風向 風速(m/s) 視程 気温(℃) 湿度(%) 気圧(hPa) 天気現象
19 21:00 南東 3 10km以上 9 53 1019
19 20:00 東南東 4 10km以上 9 53 1020
19 19:00 南東 3 10km以上 10 50 1020
19 18:00 南東 4 10km以上 10 46 1020
19 17:00 4 10km以上 11 50 1021
19 16:00 西南西 5 10km以上 12 44 1022
19 15:00 西南西 4 10km以上 12 54 1022
19 14:00 西南西 3 10km以上 12 54 1022
19 13:00 西南西 4 10km以上 11 58 1023
19 12:00 西南西 3 10km以上 11 58 1024
19 11:00 南南西 3 10km以上 11 58 1025
19 10:00 南東 3 10km以上 9 62 1026
19 09:00 東南東 4 10km以上 6 70 1026
19 08:00 東南東 6 10km以上 4 75 1025
19 07:00 東南東 6 10km以上 4 75 1025
19 06:10 東南東 5 10km以上 3 81 1024
18 21:00 南東 5 10km以上 6 76 1025
18 20:00 東南東 5 10km以上 7 70 1025
18 19:00 東南東 4 10km以上 9 62 1025
18 18:00 南西 4 10km以上 10 62 1025
18 17:00 南西 4 10km以上 10 58 1024
18 16:00 西南西 4 10km以上 11 54 1024
18 15:00 南西 4 10km以上 11 50 1023
18 14:00 南西 3 10km以上 11 50 1023
18 13:00 西 3 10km以上 11 43 1024
18 12:00 西 4 10km以上 11 47 1025
18 11:00 西北西 5 10km以上 11 47 1026
18 10:17 西北西 5 10km以上 10 54 1026
18 10:00 不定 1 10km以上 9 62 1026
18 09:00 南東 3 10km以上 6 70 1025
18 08:00 東南東 4 10km以上 4 75 1024
18 07:00 東南東 5 10km以上 4 75 1023
18 06:10 南東 5 10km以上 3 87 1023
RJOM 191200Z 13006KT 9999 FEW030 BKN110 09/M00 Q1019
RJOM 191100Z 12008KT 9999 FEW030 BKN080 09/M00 Q1020
RJOM 191000Z 13006KT 9999 FEW030 BKN080 10/M00 Q1020
RJOM 190900Z 13007KT 9999 FEW030 SCT070 10/M01 Q1020
RJOM 190800Z 18007KT 9999 FEW030 11/01 Q1021
RJOM 190700Z 24009KT 9999 FEW030 12/00 Q1022
RJOM 190600Z 24008KT 9999 FEW030 12/03 Q1022
RJOM 190500Z 24006KT 9999 FEW025 12/03 Q1022
RJOM 190400Z 25007KT 220V280 9999 FEW025 11/03 Q1023
RJOM 190300Z 24005KT 200V270 9999 FEW025 11/03 Q1024
RJOM 190200Z 21006KT 170V260 9999 FEW025 11/03 Q1025
RJOM 190100Z 13006KT 110V180 9999 FEW025 09/02 Q1026
RJOM 190000Z 12008KT 9999 FEW025 06/01 Q1026
RJOM 182300Z 11011KT 9999 FEW025 04/00 Q1025
RJOM 182200Z 11011KT 9999 FEW025 SCT/// 04/M00 Q1025
RJOM 182110Z 11010KT 9999 FEW020 03/00 Q1024 RMK 1CU020 A3026
RJOM 181200Z 13009KT 9999 FEW035 06/02 Q1025
RJOM 181100Z 11009KT 9999 FEW035 07/02 Q1025
RJOM 181000Z 11008KT 9999 FEW035 09/02 Q1025
RJOM 180900Z 22008KT 9999 FEW035 10/03 Q1025
RJOM 180800Z 22007KT 9999 FEW035 10/02 Q1024
RJOM 180700Z 24007KT 9999 FEW030 11/02 Q1024
RJOM 180600Z 22007KT 9999 FEW030 11/01 Q1023
RJOM 180500Z 23006KT 9999 FEW030 11/01 Q1023
RJOM 180400Z 26006KT 9999 FEW030 11/M01 Q1024
RJOM 180300Z 28008KT 240V300 9999 FEW030 11/00 Q1025
RJOM 180200Z 30009KT 9999 FEW030 11/00 Q1026
RJOM 180117Z 30010KT 9999 FEW030 SCT040 10/01 Q1026 RMK 1CU030 3CU040 A3030
RJOM 180100Z VRB02KT 9999 FEW030 09/02 Q1026
RJOM 180000Z 13005KT 9999 FEW030 06/01 Q1025
RJOM 172300Z 12007KT 9999 FEW030 04/00 Q1024
RJOM 172200Z 12009KT 9999 FEW030 04/00 Q1023
RJOM 172110Z 13009KT 9999 FEW025 SCT040 03/01 Q1023 RMK 1CU025 3CU040 A3022